Time;durP1;ratioP1;P1;durP2;ratioP2;P2;SDS_P1;SDS_P2;PMS_P1;PMS_P2;Temp;Humidity;BMP_temperature;BMP_pressure;BME280_temperature;BME280_humidity;BME280_pressure;Samples;Min_cycle;Max_cycle;Signal;HPM_P1;HPM_P2
2023/06/02 00:01:32;;;;;;;8.70;7.00;;;22.60;49.10;;;;;;5094777;28;20235;-77
2023/06/02 00:04:01;;;;;;;9.17;7.10;;;22.50;49.30;;;;;;5089428;28;20244;-77
2023/06/02 00:06:34;;;;;;;9.80;7.07;;;22.50;49.70;;;;;;5074784;28;20201;-78
2023/06/02 00:09:03;;;;;;;9.53;7.40;;;22.40;50.00;;;;;;5074098;28;20627;-77
2023/06/02 00:11:34;;;;;;;8.80;7.90;;;22.30;50.10;;;;;;5074586;28;20229;-80
2023/06/02 00:14:04;;;;;;;8.20;7.10;;;22.30;50.10;;;;;;5090269;28;20205;-80
2023/06/02 00:16:33;;;;;;;9.40;7.47;;;22.20;50.30;;;;;;5079381;28;20280;-77
2023/06/02 00:19:00;;;;;;;8.87;6.97;;;22.10;50.50;;;;;;5091338;28;20229;-76
2023/06/02 00:21:28;;;;;;;8.63;7.27;;;22.00;50.70;;;;;;5075307;28;20613;-77
2023/06/02 00:23:56;;;;;;;7.97;7.07;;;21.90;50.70;;;;;;5074384;28;20696;-77
2023/06/02 00:26:23;;;;;;;9.00;7.33;;;21.90;50.90;;;;;;5092145;28;20236;-78
2023/06/02 00:28:51;;;;;;;8.57;7.67;;;21.80;51.20;;;;;;5092777;28;20256;-80
2023/06/02 00:31:18;;;;;;;9.60;7.50;;;21.70;51.30;;;;;;5088403;28;20210;-76
2023/06/02 00:33:45;;;;;;;7.57;6.77;;;21.60;51.40;;;;;;5094526;28;20660;-80
2023/06/02 00:36:12;;;;;;;7.70;6.00;;;21.60;51.40;;;;;;5080417;28;20225;-77
2023/06/02 00:38:42;;;;;;;7.53;6.83;;;21.60;51.50;;;;;;5074052;28;20246;-78
2023/06/02 00:41:09;;;;;;;8.30;6.70;;;21.50;51.40;;;;;;5073822;28;20301;-79
2023/06/02 00:43:36;;;;;;;6.73;6.07;;;21.50;51.40;;;;;;5085310;28;20635;-78
2023/06/02 00:46:03;;;;;;;6.50;5.90;;;21.50;51.40;;;;;;5073924;28;20245;-77
2023/06/02 00:48:30;;;;;;;7.50;5.83;;;21.40;51.40;;;;;;5086657;28;20212;-77
2023/06/02 00:50:57;;;;;;;6.47;5.87;;;21.40;51.40;;;;;;5093068;28;20601;-78
2023/06/02 00:53:24;;;;;;;9.83;5.73;;;21.40;51.40;;;;;;5092089;28;20303;-78
2023/06/02 00:55:53;;;;;;;8.07;5.87;;;21.30;51.40;;;;;;5092477;28;20280;-76
2023/06/02 00:58:21;;;;;;;7.43;5.37;;;21.30;51.40;;;;;;5090123;28;20640;-76
2023/06/02 01:00:48;;;;;;;8.03;5.90;;;21.30;51.40;;;;;;5073931;28;20695;-75
2023/06/02 01:03:15;;;;;;;6.83;5.67;;;21.30;51.30;;;;;;5085482;28;20211;-75
2023/06/02 01:05:43;;;;;;;7.53;5.47;;;21.30;51.30;;;;;;5093417;28;20295;-77
2023/06/02 01:08:12;;;;;;;9.30;5.90;;;21.30;51.30;;;;;;5075717;28;20225;-79
2023/06/02 01:10:40;;;;;;;6.87;5.03;;;21.30;51.40;;;;;;5092616;28;20232;-80
2023/06/02 01:13:08;;;;;;;6.03;5.43;;;21.20;51.50;;;;;;5093233;28;20275;-76
2023/06/02 01:15:35;;;;;;;11.97;5.77;;;21.20;51.50;;;;;;5093415;28;20200;-78
2023/06/02 01:18:08;;;;;;;5.67;5.07;;;21.20;51.60;;;;;;5093383;28;20559;-79
2023/06/02 01:20:40;;;;;;;5.90;5.37;;;21.20;51.80;;;;;;5083311;28;20204;-75
2023/06/02 01:23:15;;;;;;;6.63;5.87;;;21.10;51.70;;;;;;5072502;28;20201;-78
2023/06/02 01:25:44;;;;;;;7.53;5.87;;;21.20;51.80;;;;;;5073189;28;20235;-77
2023/06/02 01:28:12;;;;;;;7.20;5.77;;;21.10;51.90;;;;;;5082697;28;20217;-78
2023/06/02 01:30:39;;;;;;;8.70;5.63;;;21.10;51.90;;;;;;5093918;28;20204;-78
2023/06/02 01:33:11;;;;;;;6.33;5.60;;;21.10;52.00;;;;;;5085673;28;20513;-80
2023/06/02 01:35:44;;;;;;;7.30;5.77;;;21.10;52.00;;;;;;5080897;28;20276;-77
2023/06/02 01:38:13;;;;;;;10.67;6.03;;;21.00;52.10;;;;;;5093322;28;20279;-78
2023/06/02 01:40:41;;;;;;;7.63;6.03;;;21.00;52.00;;;;;;5091757;28;20203;-76
2023/06/02 01:43:11;;;;;;;7.50;5.57;;;21.00;52.20;;;;;;5073765;28;20298;-74
2023/06/02 01:45:38;;;;;;;8.80;6.10;;;20.90;52.30;;;;;;5079270;28;20279;-77
2023/06/02 01:48:07;;;;;;;7.07;5.73;;;20.90;52.30;;;;;;5081965;28;20217;-78
2023/06/02 01:50:35;;;;;;;7.97;6.07;;;20.90;52.50;;;;;;5074564;28;20205;-77
2023/06/02 01:53:02;;;;;;;7.27;5.90;;;20.90;52.70;;;;;;5089864;28;20228;-78
2023/06/02 01:55:29;;;;;;;6.50;5.83;;;20.80;52.70;;;;;;5091514;28;20203;-79
2023/06/02 01:57:56;;;;;;;7.07;5.77;;;20.80;52.80;;;;;;5080751;28;20212;-78
2023/06/02 02:00:26;;;;;;;7.90;5.93;;;20.70;52.80;;;;;;5090955;28;20312;-78
2023/06/02 02:02:54;;;;;;;6.67;5.97;;;20.70;52.90;;;;;;5087317;28;20193;-79
2023/06/02 02:05:23;;;;;;;7.80;5.60;;;20.70;53.00;;;;;;5073002;28;20200;-80
2023/06/02 02:07:50;;;;;;;6.20;5.40;;;20.70;53.10;;;;;;5072713;28;20235;-78
2023/06/02 02:10:18;;;;;;;6.50;5.70;;;20.60;53.10;;;;;;5073015;28;20204;-78
2023/06/02 02:12:45;;;;;;;9.03;6.43;;;20.60;53.30;;;;;;5083113;28;20239;-76
2023/06/02 02:15:12;;;;;;;7.60;6.47;;;20.60;53.40;;;;;;5093212;28;20228;-78
2023/06/02 02:17:45;;;;;;;6.87;5.17;;;20.50;53.60;;;;;;5091069;28;20200;-78
2023/06/02 02:20:13;;;;;;;6.23;5.60;;;20.50;53.80;;;;;;5093275;28;20189;-76
2023/06/02 02:22:40;;;;;;;6.60;5.60;;;20.50;54.30;;;;;;5081377;28;20700;-77
2023/06/02 02:25:08;;;;;;;6.00;5.40;;;20.50;53.70;;;;;;5073172;28;20228;-78
2023/06/02 02:27:35;;;;;;;5.97;5.27;;;20.40;53.80;;;;;;5079013;28;20221;-76
2023/06/02 02:30:03;;;;;;;6.93;5.93;;;20.40;54.10;;;;;;5076700;28;20201;-77
2023/06/02 02:32:30;;;;;;;6.60;5.80;;;20.40;54.30;;;;;;5077329;28;20236;-76
2023/06/02 02:34:58;;;;;;;7.13;5.77;;;20.30;54.30;;;;;;5094368;28;20212;-79
2023/06/02 02:37:27;;;;;;;8.03;5.30;;;20.30;54.50;;;;;;5078046;28;20756;-78
2023/06/02 02:39:54;;;;;;;5.60;5.10;;;20.30;54.50;;;;;;5077476;28;20193;-77
2023/06/02 02:42:21;;;;;;;5.90;5.27;;;20.20;54.60;;;;;;5081520;28;20239;-78
2023/06/02 02:44:48;;;;;;;6.63;5.77;;;20.20;54.70;;;;;;5078271;28;20675;-81
2023/06/02 02:47:15;;;;;;;6.40;5.70;;;20.10;55.40;;;;;;5082829;28;20292;-76
2023/06/02 02:49:42;;;;;;;6.70;5.47;;;20.10;54.90;;;;;;5095957;28;20228;-78
2023/06/02 02:52:10;;;;;;;6.57;5.70;;;20.10;55.10;;;;;;5083598;28;20189;-81
2023/06/02 02:54:37;;;;;;;6.87;6.17;;;20.00;55.10;;;;;;5091638;28;20199;-81
2023/06/02 02:57:07;;;;;;;6.70;5.53;;;19.90;55.20;;;;;;5076129;28;20195;-79
2023/06/02 02:59:34;;;;;;;6.87;5.90;;;19.80;55.40;;;;;;5076189;28;20262;-78
2023/06/02 03:02:01;;;;;;;8.17;6.13;;;19.80;55.50;;;;;;5092256;28;20319;-80
2023/06/02 03:04:28;;;;;;;8.00;5.73;;;19.70;55.60;;;;;;5080233;28;20205;-80
2023/06/02 03:06:55;;;;;;;5.60;4.87;;;19.70;55.80;;;;;;5087939;28;20201;-80
2023/06/02 03:09:24;;;;;;;7.43;5.63;;;19.70;55.90;;;;;;5090173;28;20307;-80
2023/06/02 03:11:51;;;;;;;7.60;5.53;;;19.70;56.10;;;;;;5075659;28;20205;-81
2023/06/02 03:14:18;;;;;;;8.77;5.67;;;19.60;56.20;;;;;;5075519;28;20661;-81
2023/06/02 03:16:45;;;;;;;6.10;5.50;;;19.60;56.40;;;;;;5075587;28;20319;-81
2023/06/02 03:19:13;;;;;;;5.80;5.20;;;19.60;56.50;;;;;;5076858;28;20201;-80
2023/06/02 03:21:42;;;;;;;6.00;5.10;;;19.50;56.50;;;;;;5090108;28;20220;-81
2023/06/02 03:24:11;;;;;;;6.07;5.47;;;19.50;56.70;;;;;;5094362;28;20687;-80
2023/06/02 03:26:45;;;;;;;6.63;5.90;;;19.40;57.00;;;;;;5095585;28;20602;-81
2023/06/02 03:29:12;;;;;;;5.90;5.20;;;19.40;57.00;;;;;;5095488;28;20240;-80
2023/06/02 03:31:40;;;;;;;6.30;4.93;;;19.40;57.00;;;;;;5095868;28;20291;-79
2023/06/02 03:34:07;;;;;;;5.97;5.37;;;19.40;57.10;;;;;;5096039;28;20213;-80
2023/06/02 03:36:36;;;;;;;6.10;5.50;;;19.30;57.10;;;;;;5090343;28;20220;-80
2023/06/02 03:39:05;;;;;;;5.87;5.30;;;19.30;57.20;;;;;;5095523;28;20212;-80
2023/06/02 03:41:32;;;;;;;6.73;5.40;;;19.30;57.40;;;;;;5088445;28;20312;-81
2023/06/02 03:44:00;;;;;;;6.17;5.50;;;19.30;57.40;;;;;;5083485;28;20208;-79
2023/06/02 03:46:27;;;;;;;6.30;5.43;;;19.20;57.60;;;;;;5094418;28;20340;-81
2023/06/02 03:48:54;;;;;;;5.87;5.27;;;19.20;57.60;;;;;;5093689;28;20228;-80
2023/06/02 03:51:21;;;;;;;5.60;5.00;;;19.20;57.80;;;;;;5077611;28;20292;-80
2023/06/02 03:53:49;;;;;;;6.63;5.70;;;19.10;57.80;;;;;;5082764;28;20211;-79
2023/06/02 03:56:17;;;;;;;7.67;5.63;;;19.10;57.90;;;;;;5079255;28;20225;-80
2023/06/02 03:58:44;;;;;;;5.87;5.17;;;19.10;58.00;;;;;;5089666;28;20197;-81
2023/06/02 04:01:13;;;;;;;5.67;4.83;;;19.10;58.10;;;;;;5080530;28;20197;-76
2023/06/02 04:03:41;;;;;;;9.07;5.73;;;19.00;58.20;;;;;;5091970;28;21003;-81
2023/06/02 04:06:09;;;;;;;7.43;5.20;;;19.00;58.20;;;;;;5074805;28;20205;-80
2023/06/02 04:08:36;;;;;;;5.73;5.13;;;19.00;58.20;;;;;;5090975;28;20477;-81
2023/06/02 04:11:03;;;;;;;6.27;5.60;;;19.00;58.30;;;;;;5074938;28;20319;-80
2023/06/02 04:13:30;;;;;;;6.13;5.10;;;19.00;58.40;;;;;;5079524;28;20197;-81
2023/06/02 04:15:57;;;;;;;6.07;5.33;;;19.00;58.50;;;;;;5086603;28;20227;-81
2023/06/02 04:18:27;;;;;;;5.60;4.87;;;19.00;58.60;;;;;;5093048;28;20327;-80
2023/06/02 04:20:53;;;;;;;6.70;4.90;;;19.00;58.60;;;;;;5074510;28;20662;-75
2023/06/02 04:23:20;;;;;;;8.53;5.70;;;19.00;58.60;;;;;;5086216;28;20207;-79
2023/06/02 04:25:47;;;;;;;8.07;5.47;;;19.00;58.90;;;;;;5051812;28;20310;-76
2023/06/02 04:28:15;;;;;;;8.80;5.87;;;19.00;59.10;;;;;;5094195;28;20771;-75
2023/06/02 04:30:43;;;;;;;8.90;5.87;;;19.00;59.10;;;;;;5074121;28;20458;-75
2023/06/02 04:33:12;;;;;;;7.33;5.23;;;19.00;59.30;;;;;;5086303;28;20195;-77
2023/06/02 04:35:40;;;;;;;11.37;5.50;;;19.00;59.40;;;;;;5074631;28;20459;-74
2023/06/02 04:38:07;;;;;;;6.50;5.40;;;19.10;59.50;;;;;;5086726;28;20275;-77
2023/06/02 04:40:37;;;;;;;5.87;5.27;;;19.10;59.70;;;;;;5087134;28;20216;-79
2023/06/02 04:43:04;;;;;;;5.40;4.87;;;19.10;59.60;;;;;;5085537;28;20227;-75
2023/06/02 04:45:31;;;;;;;7.17;5.50;;;19.10;59.60;;;;;;5092956;28;20259;-78
2023/06/02 04:47:58;;;;;;;7.37;5.60;;;19.10;60.10;;;;;;5082696;28;20533;-78
2023/06/02 04:50:27;;;;;;;7.43;5.57;;;19.10;60.00;;;;;;5078064;28;20202;-77
2023/06/02 04:52:55;;;;;;;9.53;5.87;;;19.10;59.70;;;;;;5075354;28;20227;-77
2023/06/02 04:55:22;;;;;;;7.87;5.93;;;19.20;60.20;;;;;;5089806;28;20201;-75
2023/06/02 04:57:49;;;;;;;13.17;7.13;;;19.20;60.70;;;;;;5093982;28;20809;-77
2023/06/02 05:00:16;;;;;;;13.67;6.30;;;19.20;60.30;;;;;;5093912;28;20320;-77
2023/06/02 05:02:43;;;;;;;8.87;6.07;;;19.20;60.70;;;;;;5104564;28;20206;-78
2023/06/02 05:05:10;;;;;;;9.10;6.13;;;19.20;60.40;;;;;;5079762;28;20563;-77
2023/06/02 05:07:37;;;;;;;6.43;5.07;;;19.20;60.10;;;;;;5073847;28;20316;-76
2023/06/02 05:10:06;;;;;;;6.50;5.23;;;19.30;60.00;;;;;;5071976;28;20225;-77
2023/06/02 05:12:33;;;;;;;5.93;5.33;;;19.30;59.80;;;;;;5073728;28;20212;-77
2023/06/02 05:15:00;;;;;;;5.70;5.10;;;19.30;59.60;;;;;;5091549;28;20204;-78
2023/06/02 05:17:28;;;;;;;6.33;5.20;;;19.30;59.60;;;;;;5076539;28;20292;-79
2023/06/02 05:19:55;;;;;;;5.87;5.33;;;19.30;59.50;;;;;;5076722;28;20280;-77
2023/06/02 05:22:22;;;;;;;7.40;4.90;;;19.40;59.70;;;;;;5081479;28;20610;-78
2023/06/02 05:24:49;;;;;;;5.83;5.27;;;19.40;59.70;;;;;;5080386;28;20217;-78
2023/06/02 05:27:18;;;;;;;6.83;4.50;;;19.40;59.60;;;;;;5076861;28;20222;-77
2023/06/02 05:29:45;;;;;;;7.17;5.00;;;19.40;59.30;;;;;;5078260;28;20225;-77
2023/06/02 05:32:12;;;;;;;5.13;4.63;;;19.50;59.00;;;;;;5086025;28;20228;-77
2023/06/02 05:34:42;;;;;;;5.73;4.63;;;19.60;58.90;;;;;;5079494;28;20238;-79
2023/06/02 05:37:09;;;;;;;5.53;4.93;;;19.60;58.90;;;;;;5092414;28;20204;-76
2023/06/02 05:39:36;;;;;;;5.23;4.73;;;19.70;58.90;;;;;;5082223;28;20622;-78
2023/06/02 05:42:03;;;;;;;6.30;4.47;;;19.70;58.90;;;;;;5074291;28;20284;-76
2023/06/02 05:44:32;;;;;;;5.70;4.57;;;19.70;58.90;;;;;;5093248;28;20291;-77
2023/06/02 05:46:59;;;;;;;5.00;3.80;;;19.80;58.80;;;;;;5077265;28;20208;-78
2023/06/02 05:49:25;;;;;;;6.37;5.23;;;19.80;58.70;;;;;;5086169;28;20213;-77
2023/06/02 05:51:52;;;;;;;4.93;4.30;;;19.80;58.70;;;;;;5091814;28;20203;-75
2023/06/02 05:54:19;;;;;;;5.23;4.50;;;19.80;58.70;;;;;;5086376;28;20207;-76
2023/06/02 05:56:47;;;;;;;5.40;4.30;;;19.80;58.20;;;;;;5084849;28;20676;-79
2023/06/02 05:59:14;;;;;;;4.93;4.53;;;19.80;57.90;;;;;;5074287;28;20199;-79
2023/06/02 06:01:42;;;;;;;5.40;4.73;;;19.90;57.80;;;;;;5077164;28;20315;-80
2023/06/02 06:04:09;;;;;;;5.10;4.43;;;19.90;57.70;;;;;;5090489;28;20204;-80
2023/06/02 06:06:36;;;;;;;5.60;4.50;;;19.90;57.40;;;;;;5083169;28;20619;-78
2023/06/02 06:09:05;;;;;;;6.00;4.33;;;20.00;57.30;;;;;;5084074;28;20232;-77
2023/06/02 06:11:32;;;;;;;6.37;4.70;;;20.00;57.50;;;;;;5095101;28;20624;-77
2023/06/02 06:14:00;;;;;;;4.67;4.17;;;20.10;57.60;;;;;;5097391;28;20226;-78
2023/06/02 06:16:27;;;;;;;5.30;4.73;;;20.20;57.50;;;;;;5090657;28;20315;-76
2023/06/02 06:18:55;;;;;;;4.77;4.17;;;20.20;57.30;;;;;;5096679;28;20279;-77
2023/06/02 06:21:24;;;;;;;5.83;4.00;;;20.30;57.10;;;;;;5096303;28;20207;-75
2023/06/02 06:23:50;;;;;;;4.90;4.40;;;20.30;57.20;;;;;;5077207;28;20197;-76
2023/06/02 06:26:17;;;;;;;5.20;4.70;;;20.30;56.80;;;;;;5094446;28;20311;-77
2023/06/02 06:28:44;;;;;;;6.00;4.80;;;20.40;57.00;;;;;;5095893;28;20192;-75
2023/06/02 06:31:11;;;;;;;5.27;4.23;;;20.40;56.50;;;;;;5095118;28;20246;-78
2023/06/02 06:33:38;;;;;;;4.67;3.97;;;20.50;56.50;;;;;;5082167;28;20216;-75
2023/06/02 06:36:07;;;;;;;5.23;4.67;;;20.50;56.40;;;;;;5075613;28;20201;-78
2023/06/02 06:38:34;;;;;;;6.57;4.47;;;20.50;56.10;;;;;;5076075;28;20252;-76
2023/06/02 06:41:01;;;;;;;4.77;4.07;;;20.50;56.20;;;;;;5091137;28;20210;-76
2023/06/02 06:43:28;;;;;;;4.60;4.20;;;20.60;56.30;;;;;;5088259;28;20286;-76
2023/06/02 06:45:54;;;;;;;6.47;4.20;;;20.60;56.00;;;;;;5082807;28;20284;-77
2023/06/02 06:48:22;;;;;;;6.33;4.37;;;20.60;56.10;;;;;;5097003;28;20575;-78
2023/06/02 06:50:49;;;;;;;7.87;4.30;;;20.70;56.00;;;;;;5095665;28;20464;-78
2023/06/02 06:53:18;;;;;;;4.27;3.87;;;20.80;56.10;;;;;;5083207;28;20195;-78
2023/06/02 06:55:45;;;;;;;5.33;3.90;;;20.80;56.00;;;;;;5078725;28;20685;-76
2023/06/02 06:58:12;;;;;;;4.23;3.83;;;20.90;55.60;;;;;;5075510;28;20210;-76
2023/06/02 07:00:39;;;;;;;4.60;3.53;;;21.00;55.90;;;;;;5076084;28;20224;-78
2023/06/02 07:03:06;;;;;;;6.97;3.63;;;21.00;56.00;;;;;;5088772;28;20200;-77
2023/06/02 07:05:33;;;;;;;5.67;4.50;;;21.10;55.70;;;;;;5094887;28;20760;-77
2023/06/02 07:08:00;;;;;;;5.07;3.87;;;21.20;55.60;;;;;;5095099;28;20582;-78
2023/06/02 07:10:28;;;;;;;5.40;4.07;;;21.20;55.50;;;;;;5094912;28;20331;-78
2023/06/02 07:12:55;;;;;;;5.40;4.83;;;21.30;55.40;;;;;;5084938;28;20624;-76
2023/06/02 07:15:22;;;;;;;4.40;3.93;;;21.40;55.10;;;;;;5058070;28;20319;-76
2023/06/02 07:17:49;;;;;;;6.27;4.60;;;21.40;55.20;;;;;;5091035;28;20211;-77
2023/06/02 07:20:16;;;;;;;5.10;4.60;;;21.50;55.20;;;;;;5094408;28;20205;-77
2023/06/02 07:22:43;;;;;;;5.33;4.37;;;21.50;55.00;;;;;;5090617;28;20199;-78
2023/06/02 07:25:11;;;;;;;5.70;4.53;;;21.60;55.30;;;;;;5081715;28;20205;-77
2023/06/02 07:27:39;;;;;;;5.50;4.30;;;21.70;54.80;;;;;;5073985;28;20292;-76
2023/06/02 07:30:08;;;;;;;6.33;4.70;;;21.70;54.80;;;;;;5075545;28;20331;-79
2023/06/02 07:32:35;;;;;;;4.50;4.00;;;21.80;54.80;;;;;;5076094;28;20658;-77
2023/06/02 07:35:02;;;;;;;7.67;4.53;;;21.90;54.60;;;;;;5074539;28;20232;-80
2023/06/02 07:37:29;;;;;;;6.10;4.90;;;21.90;54.70;;;;;;5074968;28;20189;-77
2023/06/02 07:39:55;;;;;;;5.00;4.60;;;22.00;54.40;;;;;;5079596;28;20226;-78
2023/06/02 07:42:23;;;;;;;6.37;4.40;;;22.00;54.40;;;;;;5085299;28;20235;-78
2023/06/02 07:44:51;;;;;;;6.60;4.73;;;22.00;54.10;;;;;;5094881;28;20576;-78
2023/06/02 07:47:18;;;;;;;6.20;4.80;;;22.10;54.00;;;;;;5094917;28;20251;-75
2023/06/02 07:49:45;;;;;;;4.37;3.97;;;22.10;54.40;;;;;;5093964;28;20228;-77
2023/06/02 07:52:12;;;;;;;6.30;4.63;;;22.10;54.00;;;;;;5095179;28;20189;-80
2023/06/02 07:54:39;;;;;;;5.07;4.50;;;22.20;54.20;;;;;;5093866;28;20300;-78
2023/06/02 07:57:06;;;;;;;5.60;4.77;;;22.30;53.70;;;;;;5094311;28;20289;-75
2023/06/02 07:59:33;;;;;;;5.00;4.50;;;22.40;53.70;;;;;;5094689;28;20575;-79
2023/06/02 08:02:03;;;;;;;6.90;4.53;;;22.40;53.20;;;;;;5094594;28;20211;-79
2023/06/02 08:04:30;;;;;;;5.23;4.10;;;22.50;53.30;;;;;;5094164;28;20770;-78
2023/06/02 08:06:57;;;;;;;5.57;4.03;;;22.50;53.80;;;;;;5094934;28;20204;-78
2023/06/02 08:09:24;;;;;;;5.27;4.43;;;22.60;53.90;;;;;;5094402;28;20228;-77
2023/06/02 08:11:52;;;;;;;5.30;4.80;;;22.70;53.40;;;;;;5088591;28;20206;-79
2023/06/02 08:14:19;;;;;;;4.80;4.33;;;22.80;53.30;;;;;;5094544;28;20184;-80
2023/06/02 08:16:46;;;;;;;4.83;3.90;;;22.90;52.90;;;;;;5079660;28;20292;-80
2023/06/02 08:19:14;;;;;;;6.47;4.70;;;23.00;53.10;;;;;;5072518;28;20212;-80
2023/06/02 08:21:42;;;;;;;5.83;4.77;;;23.00;53.00;;;;;;5074436;28;20231;-80
2023/06/02 08:24:09;;;;;;;5.60;4.20;;;23.00;52.70;;;;;;5088139;28;20234;-80
2023/06/02 08:26:39;;;;;;;5.80;5.00;;;23.10;52.00;;;;;;5091492;28;20202;-78
2023/06/02 08:29:08;;;;;;;4.73;4.33;;;23.20;52.50;;;;;;5073639;28;20205;-79
2023/06/02 08:31:36;;;;;;;5.20;4.63;;;23.20;52.30;;;;;;5074255;28;20209;-79
2023/06/02 08:34:03;;;;;;;5.27;4.60;;;23.20;51.80;;;;;;5076316;28;20216;-78
2023/06/02 08:36:33;;;;;;;5.57;4.90;;;23.40;51.70;;;;;;5072770;28;20205;-78
2023/06/02 08:39:05;;;;;;;6.50;5.40;;;23.40;51.50;;;;;;5073483;28;20235;-78
2023/06/02 08:41:36;;;;;;;7.30;5.00;;;23.40;51.20;;;;;;5073829;28;20254;-78
2023/06/02 08:44:03;;;;;;;6.43;4.80;;;23.50;51.40;;;;;;5092366;28;20204;-78
2023/06/02 08:46:31;;;;;;;5.90;5.30;;;23.50;51.40;;;;;;5093955;28;20212;-79
2023/06/02 08:49:00;;;;;;;5.83;4.27;;;23.50;51.20;;;;;;5092151;28;20227;-78
2023/06/02 08:51:27;;;;;;;5.67;5.07;;;23.60;50.90;;;;;;5093998;28;20228;-79
2023/06/02 08:53:55;;;;;;;7.87;4.90;;;23.60;50.90;;;;;;5077339;28;20610;-79
2023/06/02 08:56:24;;;;;;;5.20;4.30;;;23.70;50.90;;;;;;5073988;28;20212;-79
2023/06/02 08:58:50;;;;;;;7.00;4.57;;;23.80;50.90;;;;;;5073767;28;20591;-78
2023/06/02 09:01:17;;;;;;;6.27;4.50;;;23.80;50.90;;;;;;5073371;28;20296;-78
2023/06/02 09:03:47;;;;;;;6.13;4.17;;;23.80;50.50;;;;;;5083823;28;20200;-80
2023/06/02 09:06:19;;;;;;;5.93;4.67;;;23.90;50.60;;;;;;5078819;28;20692;-81
2023/06/02 09:08:55;;;;;;;7.47;4.50;;;24.00;50.00;;;;;;5073793;28;20259;-80
2023/06/02 09:11:22;;;;;;;5.13;4.60;;;24.00;50.60;;;;;;5072318;28;20227;-79
2023/06/02 09:13:49;;;;;;;6.93;4.50;;;24.10;50.70;;;;;;5086543;28;20200;-79
2023/06/02 09:16:16;;;;;;;4.30;3.90;;;24.20;50.50;;;;;;5086167;28;20622;-80
2023/06/02 09:18:56;;;;;;;6.03;4.50;;;24.30;50.20;;;;;;5085776;28;20314;-76
2023/06/02 09:21:27;;;;;;;8.23;4.70;;;24.40;50.30;;;;;;5094021;28;20211;-79
2023/06/02 09:23:56;;;;;;;7.10;5.27;;;24.40;49.80;;;;;;5093622;28;20212;-80
2023/06/02 09:26:25;;;;;;;7.57;4.87;;;24.50;49.20;;;;;;5092926;28;20312;-79
2023/06/02 09:29:07;;;;;;;6.70;4.27;;;24.50;49.70;;;;;;5058231;28;20216;-78
2023/06/02 09:31:47;;;;;;;4.53;4.00;;;24.60;49.40;;;;;;5091201;28;20227;-79
2023/06/02 09:34:15;;;;;;;5.43;4.70;;;24.60;49.20;;;;;;5093255;28;20185;-78
2023/06/02 09:36:42;;;;;;;8.87;4.47;;;24.70;48.70;;;;;;5043977;28;20254;-78
2023/06/02 09:39:11;;;;;;;5.30;3.77;;;24.70;48.70;;;;;;5073309;28;20319;-78
2023/06/02 09:41:38;;;;;;;6.23;4.40;;;24.80;49.70;;;;;;5081243;28;20618;-79
2023/06/02 09:44:13;;;;;;;7.13;4.40;;;24.90;48.80;;;;;;5072787;28;20313;-78
2023/06/02 09:46:42;;;;;;;7.17;5.13;;;24.90;49.20;;;;;;5077619;28;20228;-78
2023/06/02 09:49:10;;;;;;;5.13;4.33;;;25.00;48.40;;;;;;5088479;28;20201;-78
2023/06/02 09:51:38;;;;;;;5.73;3.93;;;25.10;48.10;;;;;;5088687;28;20695;-79
2023/06/02 09:54:06;;;;;;;4.83;4.33;;;25.20;48.20;;;;;;5091659;28;20194;-79
2023/06/02 09:56:36;;;;;;;4.93;3.90;;;25.20;48.30;;;;;;5080521;28;20200;-79
2023/06/02 09:59:05;;;;;;;5.30;4.17;;;25.30;48.80;;;;;;5079047;28;20247;-77
2023/06/02 10:01:33;;;;;;;5.63;4.30;;;25.30;47.30;;;;;;5092245;28;20246;-81
2023/06/02 10:04:00;;;;;;;6.73;4.50;;;25.30;47.40;;;;;;5087104;28;20284;-78
2023/06/02 10:06:48;;;;;;;5.70;3.63;;;25.40;47.80;;;;;;5081493;28;20225;-79
2023/06/02 10:09:28;;;;;;;5.90;3.80;;;25.50;47.90;;;;;;5073020;28;20209;-78
2023/06/02 10:12:17;;;;;;;4.40;3.90;;;25.60;48.60;;;;;;5072915;28;20223;-79
2023/06/02 10:15:07;;;;;;;5.63;3.87;;;25.60;47.70;;;;;;5072915;28;20211;-80
2023/06/02 10:17:46;;;;;;;5.30;4.23;;;25.70;47.70;;;;;;5073282;28;20636;-78
2023/06/02 10:20:25;;;;;;;5.93;4.57;;;25.70;46.00;;;;;;5078711;28;20228;-79
2023/06/02 10:23:15;;;;;;;5.97;4.33;;;25.70;46.40;;;;;;5079537;28;20196;-77
2023/06/02 10:25:57;;;;;;;7.83;4.53;;;25.70;46.60;;;;;;5083455;28;20578;-78
2023/06/02 10:28:28;;;;;;;6.27;4.30;;;25.80;46.30;;;;;;5087686;28;20198;-77
2023/06/02 10:31:07;;;;;;;4.20;3.80;;;25.80;46.40;;;;;;5090627;28;20320;-79
2023/06/02 10:33:46;;;;;;;6.03;4.10;;;25.90;47.00;;;;;;5086545;28;20224;-78
2023/06/02 10:36:17;;;;;;;5.60;4.23;;;26.00;46.10;;;;;;5040441;28;20197;-78
2023/06/02 10:38:45;;;;;;;7.47;4.67;;;26.10;46.60;;;;;;5072488;28;20225;-78
2023/06/02 10:41:13;;;;;;;8.53;4.77;;;26.20;46.10;;;;;;5072615;28;20770;-75
2023/06/02 10:44:14;;;;;;;5.90;4.03;;;26.30;45.90;;;;;;5081031;28;20304;-78
2023/06/02 10:46:42;;;;;;;5.33;3.80;;;26.30;46.40;;;;;;5091904;28;20260;-77
2023/06/02 10:49:08;;;;;;;5.47;4.10;;;26.50;46.40;;;;;;5091670;28;20232;-78
2023/06/02 10:52:06;;;;;;;5.47;4.40;;;26.50;45.30;;;;;;5096616;28;20320;-79
2023/06/02 10:54:32;;;;;;;5.20;4.07;;;26.50;45.30;;;;;;5096734;28;20204;-79
2023/06/02 10:57:00;;;;;;;4.17;3.57;;;26.60;45.50;;;;;;5096384;28;20239;-78
2023/06/02 10:59:36;;;;;;;6.60;4.43;;;26.70;46.20;;;;;;5096233;28;20208;-79
2023/06/02 11:02:03;;;;;;;5.37;3.83;;;26.80;46.00;;;;;;5096457;28;20205;-78
2023/06/02 11:04:32;;;;;;;4.77;3.80;;;26.90;45.70;;;;;;5096340;28;20295;-78
2023/06/02 11:07:18;;;;;;;5.77;3.43;;;26.90;45.80;;;;;;5089758;28;20217;-79
2023/06/02 11:09:45;;;;;;;5.27;3.80;;;27.10;45.80;;;;;;5083702;28;20225;-79
2023/06/02 11:12:13;;;;;;;4.97;3.80;;;27.10;45.00;;;;;;5075517;28;20269;-78
2023/06/02 11:15:18;;;;;;;5.27;3.80;;;27.20;44.70;;;;;;5075917;28;20645;-80
2023/06/02 11:17:48;;;;;;;4.27;3.87;;;27.30;45.40;;;;;;5076148;28;20195;-78
2023/06/02 11:20:15;;;;;;;5.20;3.63;;;27.30;45.20;;;;;;5075526;28;20208;-78
2023/06/02 11:22:43;;;;;;;5.43;4.20;;;27.40;45.00;;;;;;5075520;28;20240;-79
2023/06/02 11:25:10;;;;;;;4.13;3.83;;;27.50;44.60;;;;;;5076119;28;20213;-78
2023/06/02 11:27:40;;;;;;;5.23;3.50;;;27.60;44.70;;;;;;5080687;28;20558;-79
2023/06/02 11:30:09;;;;;;;6.70;3.80;;;27.60;44.40;;;;;;5095796;28;20757;-77
2023/06/02 11:32:38;;;;;;;5.00;4.00;;;27.70;44.30;;;;;;5095627;28;20253;-78
2023/06/02 11:35:07;;;;;;;4.40;3.97;;;27.70;43.70;;;;;;5095719;28;20264;-78
2023/06/02 11:37:36;;;;;;;5.33;3.90;;;27.70;43.60;;;;;;5096052;28;20256;-78
2023/06/02 11:40:05;;;;;;;5.10;3.27;;;27.80;44.20;;;;;;5094596;28;20218;-78
2023/06/02 11:42:37;;;;;;;4.83;3.63;;;27.90;43.90;;;;;;5095097;28;20330;-77
2023/06/02 11:45:05;;;;;;;5.77;3.80;;;28.00;43.30;;;;;;5095398;28;20213;-77
2023/06/02 11:47:32;;;;;;;4.53;3.53;;;28.00;43.80;;;;;;5095809;28;20307;-78
2023/06/02 11:50:01;;;;;;;5.73;4.27;;;28.10;43.20;;;;;;5095016;28;20293;-78
2023/06/02 11:52:32;;;;;;;6.67;3.80;;;28.10;43.10;;;;;;5095629;28;20295;-77
2023/06/02 11:54:59;;;;;;;5.60;3.40;;;28.20;43.50;;;;;;5095343;28;20237;-78
2023/06/02 11:57:31;;;;;;;5.50;3.50;;;28.30;43.60;;;;;;5082329;28;20206;-79
2023/06/02 12:00:12;;;;;;;4.73;3.87;;;28.40;42.20;;;;;;5093521;28;20537;-77
2023/06/02 12:02:43;;;;;;;7.83;4.27;;;28.40;42.40;;;;;;5095541;28;20246;-79
2023/06/02 12:05:30;;;;;;;5.43;3.80;;;28.40;42.20;;;;;;5077770;28;20223;-78
2023/06/02 12:07:57;;;;;;;4.40;3.53;;;28.30;42.10;;;;;;5075324;28;20196;-78
2023/06/02 12:10:32;;;;;;;6.60;3.83;;;28.40;42.50;;;;;;5074629;28;20295;-77
2023/06/02 12:13:01;;;;;;;5.10;4.27;;;28.40;41.70;;;;;;5074590;28;20293;-78
2023/06/02 12:15:33;;;;;;;7.20;4.40;;;28.50;41.90;;;;;;5081011;28;20225;-78
2023/06/02 12:18:03;;;;;;;5.67;3.93;;;28.50;42.30;;;;;;5085448;28;20221;-77
2023/06/02 12:20:42;;;;;;;5.10;3.53;;;28.50;42.20;;;;;;5074830;28;20191;-78
2023/06/02 12:23:12;;;;;;;4.70;3.90;;;28.60;41.50;;;;;;5074566;28;20228;-78
2023/06/02 12:25:39;;;;;;;4.73;3.87;;;28.60;41.80;;;;;;5087430;28;20593;-79
2023/06/02 12:28:14;;;;;;;5.43;4.30;;;28.70;41.70;;;;;;5094131;28;20287;-78
2023/06/02 12:30:48;;;;;;;6.37;4.20;;;28.80;41.70;;;;;;5082778;28;20230;-79
2023/06/02 12:33:15;;;;;;;5.57;3.80;;;28.80;41.20;;;;;;5091389;28;20199;-77
2023/06/02 12:35:43;;;;;;;5.70;3.83;;;28.90;41.40;;;;;;5095136;28;20203;-78
2023/06/02 12:38:10;;;;;;;6.57;3.90;;;28.90;40.70;;;;;;5094388;28;20321;-79
2023/06/02 12:40:40;;;;;;;7.47;4.13;;;29.00;40.70;;;;;;5094779;28;20250;-78
2023/06/02 12:43:06;;;;;;;4.50;3.83;;;29.00;40.70;;;;;;5094093;28;20235;-79
2023/06/02 12:45:33;;;;;;;6.93;4.30;;;29.00;40.90;;;;;;5087310;28;20228;-77
2023/06/02 12:48:01;;;;;;;5.33;4.20;;;29.00;40.70;;;;;;5080956;28;20211;-77
2023/06/02 12:50:28;;;;;;;5.57;3.70;;;29.10;40.50;;;;;;5080706;28;20205;-79
2023/06/02 12:52:58;;;;;;;13.13;4.47;;;29.10;40.60;;;;;;5073854;28;20200;-78
2023/06/02 12:55:26;;;;;;;3.80;3.50;;;29.20;40.20;;;;;;5092183;28;20196;-79